Time;durP1;ratioP1;P1;durP2;ratioP2;P2;SDS_P1;SDS_P2;PMS_P1;PMS_P2;Temp;Humidity;BMP_temperature;BMP_pressure;BME280_temperature;BME280_humidity;BME280_pressure;Samples;Min_cycle;Max_cycle;Signal;HPM_P1;HPM_P2
2022/01/13 00:01:30;;;;;;;61.67;33.73;;;13.00;79.70;;;;;;5115086;28;20047;-30
2022/01/13 00:04:01;;;;;;;55.03;28.63;;;13.00;79.80;;;;;;5146986;28;20050;-29
2022/01/13 00:06:32;;;;;;;55.77;29.33;;;13.00;79.80;;;;;;5146751;28;20055;-31
2022/01/13 00:09:04;;;;;;;54.17;30.60;;;13.00;79.90;;;;;;5146747;28;20141;-30
2022/01/13 00:11:35;;;;;;;51.73;28.83;;;13.00;80.00;;;;;;5130385;28;20062;-28
2022/01/13 00:22:26;;;;;;;40.17;23.63;;;13.00;80.10;;;;;;5189343;28;20046;-29
2022/01/13 00:25:00;;;;;;;39.87;24.40;;;13.00;80.30;;;;;;5187647;28;20058;-29
2022/01/13 00:27:31;;;;;;;41.40;25.47;;;12.90;80.40;;;;;;5189070;28;20045;-31
2022/01/13 00:30:03;;;;;;;36.70;23.63;;;12.90;80.80;;;;;;5188840;28;20391;-31
2022/01/13 00:32:34;;;;;;;39.13;24.93;;;12.80;81.30;;;;;;5188829;28;20049;-31
2022/01/13 00:35:06;;;;;;;35.47;22.93;;;12.80;81.60;;;;;;5188443;28;20123;-29
2022/01/13 00:37:37;;;;;;;37.10;21.67;;;12.80;81.70;;;;;;5189343;28;20065;-31
2022/01/13 00:40:09;;;;;;;30.90;20.27;;;12.80;81.50;;;;;;5188982;28;20091;-30
2022/01/13 00:42:40;;;;;;;35.13;22.60;;;12.80;81.40;;;;;;5188602;28;20070;-29
2022/01/13 00:45:14;;;;;;;32.03;21.10;;;12.80;81.30;;;;;;5188494;28;20515;-29
2022/01/13 00:47:45;;;;;;;32.60;21.47;;;12.80;81.40;;;;;;5188578;28;20445;-28
2022/01/13 00:50:18;;;;;;;30.67;20.13;;;12.80;81.70;;;;;;5187986;28;20078;-30
2022/01/13 00:52:49;;;;;;;35.80;22.40;;;12.80;81.70;;;;;;5188567;28;20057;-30
2022/01/13 00:55:22;;;;;;;32.20;20.93;;;12.80;81.70;;;;;;5187594;28;20037;-30
2022/01/13 00:57:53;;;;;;;40.70;25.77;;;12.80;81.70;;;;;;5187723;28;20044;-31
2022/01/13 01:00:24;;;;;;;31.20;22.20;;;12.80;81.80;;;;;;5188520;28;20045;-30
2022/01/13 01:02:56;;;;;;;33.90;22.27;;;12.80;82.10;;;;;;5187171;28;20042;-30
2022/01/13 01:05:27;;;;;;;32.27;20.43;;;12.70;82.00;;;;;;5186964;28;20061;-31
2022/01/13 01:07:58;;;;;;;34.23;21.30;;;12.80;82.00;;;;;;5188395;28;20117;-30
2022/01/13 01:10:29;;;;;;;34.77;22.57;;;12.80;82.00;;;;;;5188030;28;20539;-29
2022/01/13 01:13:10;;;;;;;32.10;22.30;;;12.80;82.10;;;;;;5186941;28;20048;-29
2022/01/13 01:15:44;;;;;;;38.87;26.27;;;12.80;82.20;;;;;;5188090;28;20490;-30
2022/01/13 01:18:32;;;;;;;33.83;26.87;;;12.80;82.20;;;;;;5188073;28;20041;-31
2022/01/13 01:26:34;;;;;;;35.90;21.37;;;12.80;82.40;;;;;;5171194;28;20055;-31
2022/01/13 01:31:50;;;;;;;35.13;21.87;;;12.70;82.80;;;;;;5186760;28;20049;-31
2022/01/13 01:37:32;;;;;;;28.80;18.33;;;12.70;83.30;;;;;;5165162;28;20050;-29
2022/01/13 01:40:04;;;;;;;31.23;18.47;;;12.70;83.20;;;;;;5165015;28;20186;-29
2022/01/13 01:42:35;;;;;;;29.50;20.27;;;12.70;83.10;;;;;;5165127;28;20211;-30
2022/01/13 01:45:07;;;;;;;29.67;18.63;;;12.70;83.00;;;;;;5148870;28;20050;-30
2022/01/13 01:47:39;;;;;;;27.63;19.23;;;12.80;83.10;;;;;;5148961;28;20054;-29
2022/01/13 01:50:18;;;;;;;29.67;19.73;;;12.80;83.20;;;;;;5164862;28;20125;-29
2022/01/13 01:52:51;;;;;;;27.40;17.83;;;12.70;83.30;;;;;;5164877;28;20059;-29
2022/01/13 01:55:22;;;;;;;27.50;18.80;;;12.70;83.50;;;;;;5164962;28;20046;-30
2022/01/13 01:57:53;;;;;;;26.73;18.73;;;12.70;83.60;;;;;;5164977;28;20056;-29
2022/01/13 02:00:27;;;;;;;24.47;18.63;;;12.70;83.70;;;;;;5164639;28;20555;-31
2022/01/13 02:02:59;;;;;;;24.50;17.40;;;12.70;83.80;;;;;;5164727;28;20045;-31
2022/01/13 02:05:30;;;;;;;26.83;18.13;;;12.70;83.70;;;;;;5164692;28;20145;-31
2022/01/13 02:08:02;;;;;;;23.07;16.23;;;12.60;83.70;;;;;;5148010;28;20048;-29
2022/01/13 02:10:33;;;;;;;23.03;15.97;;;12.70;83.80;;;;;;5167909;28;20061;-29
2022/01/13 02:13:07;;;;;;;23.97;17.00;;;12.70;83.80;;;;;;5185921;28;20069;-30
2022/01/13 02:18:31;;;;;;;26.80;18.17;;;12.70;84.00;;;;;;5186225;28;20049;-29
2022/01/13 02:21:04;;;;;;;28.17;20.60;;;12.60;84.10;;;;;;5187019;28;20049;-30
2022/01/13 02:23:39;;;;;;;25.87;19.93;;;12.70;84.20;;;;;;5153053;28;20053;-28
2022/01/13 02:26:10;;;;;;;27.87;19.20;;;12.60;84.30;;;;;;5186770;28;20096;-29
2022/01/13 02:28:41;;;;;;;26.27;19.83;;;12.50;84.50;;;;;;5186825;28;20369;-30
2022/01/13 02:31:12;;;;;;;27.70;21.57;;;12.50;84.90;;;;;;5185483;28;20111;-31
2022/01/13 02:33:43;;;;;;;25.90;21.40;;;12.50;85.10;;;;;;5185634;28;20099;-29
2022/01/13 02:36:18;;;;;;;26.40;21.87;;;12.50;85.20;;;;;;5186280;28;20050;-29
2022/01/13 02:38:50;;;;;;;27.60;21.67;;;12.50;85.30;;;;;;5185692;28;20073;-30
2022/01/13 02:41:24;;;;;;;28.17;22.17;;;12.60;85.20;;;;;;5185603;28;20041;-31
2022/01/13 02:43:57;;;;;;;28.47;22.43;;;12.60;85.00;;;;;;5186055;28;20105;-31
2022/01/13 02:46:32;;;;;;;96.38;74.53;;;12.60;85.00;;;;;;5187030;28;20065;-31
2022/01/13 02:49:10;;;;;;;57.67;33.00;;;12.60;85.10;;;;;;5186718;28;20120;-31
2022/01/13 02:51:43;;;;;;;54.17;30.40;;;12.60;85.10;;;;;;5185414;28;20405;-30
2022/01/13 02:54:14;;;;;;;37.92;22.98;;;12.60;85.10;;;;;;5186423;28;20065;-30
2022/01/13 02:56:45;;;;;;;35.17;21.40;;;12.60;85.00;;;;;;5169341;28;20534;-30
2022/01/13 02:59:17;;;;;;;25.70;17.53;;;12.60;85.20;;;;;;5186603;28;20506;-30
2022/01/13 03:01:48;;;;;;;21.07;15.57;;;12.60;85.20;;;;;;5186599;28;20117;-29
2022/01/13 03:04:21;;;;;;;24.60;15.60;;;12.60;85.10;;;;;;5186869;28;20452;-29
2022/01/13 03:06:53;;;;;;;20.50;14.00;;;12.70;85.20;;;;;;5186599;28;20046;-29
2022/01/13 03:09:25;;;;;;;16.97;12.43;;;12.70;85.30;;;;;;5185517;28;20085;-28
2022/01/13 03:11:56;;;;;;;20.63;14.17;;;12.60;85.40;;;;;;5186488;28;20046;-29
2022/01/13 03:14:27;;;;;;;19.60;13.17;;;12.60;85.40;;;;;;5186468;28;20046;-31
2022/01/13 03:16:58;;;;;;;18.40;13.43;;;12.60;85.60;;;;;;5186763;28;20395;-30
2022/01/13 03:19:28;;;;;;;18.67;13.67;;;12.60;85.80;;;;;;5186483;28;20045;-29
2022/01/13 03:22:00;;;;;;;18.73;12.57;;;12.60;85.90;;;;;;5190292;28;20037;-31
2022/01/13 03:24:31;;;;;;;16.90;12.83;;;12.60;86.10;;;;;;5188780;28;20066;-29
2022/01/13 03:27:03;;;;;;;20.07;14.17;;;12.60;86.10;;;;;;5188863;28;20050;-28
2022/01/13 03:29:34;;;;;;;20.70;14.27;;;12.60;86.30;;;;;;5190276;28;20057;-30
2022/01/13 03:32:05;;;;;;;17.90;13.27;;;12.60;86.50;;;;;;5189996;28;20048;-29
2022/01/13 03:34:36;;;;;;;16.57;13.27;;;12.60;86.60;;;;;;5190033;28;20124;-30
2022/01/13 03:37:08;;;;;;;17.80;13.17;;;12.60;86.70;;;;;;5188872;28;20492;-29
2022/01/13 03:39:39;;;;;;;18.47;13.47;;;12.60;86.80;;;;;;5172513;28;20046;-31
2022/01/13 03:42:10;;;;;;;16.73;12.40;;;12.60;86.80;;;;;;5189655;28;20545;-31
2022/01/13 03:44:41;;;;;;;19.83;13.97;;;12.60;86.80;;;;;;5188731;28;20046;-31
2022/01/13 03:47:13;;;;;;;20.77;14.37;;;12.60;86.90;;;;;;5188641;28;20522;-31
2022/01/13 03:49:44;;;;;;;18.98;14.43;;;12.50;86.90;;;;;;5188864;28;20069;-30
2022/01/13 03:52:18;;;;;;;18.40;14.00;;;12.60;86.90;;;;;;5189952;28;20188;-29
2022/01/13 03:55:36;;;;;;;22.63;17.17;;;12.60;86.90;;;;;;5188678;28;20049;-29
2022/01/13 03:58:45;;;;;;;31.40;23.97;;;12.60;86.90;;;;;;5171403;28;20107;-30
2022/01/13 04:01:50;;;;;;;24.90;16.73;;;12.50;87.00;;;;;;5189361;28;20124;-31
2022/01/13 04:04:21;;;;;;;19.97;14.33;;;12.60;87.20;;;;;;5189719;28;20048;-29
2022/01/13 04:07:07;;;;;;;24.03;16.83;;;12.50;87.20;;;;;;5171672;28;20399;-29
2022/01/13 04:09:38;;;;;;;18.67;13.77;;;12.50;87.20;;;;;;5189423;28;20038;-29
2022/01/13 04:12:11;;;;;;;24.07;17.97;;;12.60;87.20;;;;;;5189222;28;20472;-30
2022/01/13 04:17:17;;;;;;;19.40;14.90;;;12.60;87.40;;;;;;5188115;28;19964;-31
2022/01/13 04:19:50;;;;;;;17.23;13.50;;;12.50;87.40;;;;;;5187894;28;20054;-30
2022/01/13 04:22:21;;;;;;;18.60;14.47;;;11.40;90.10;;;;;;5172093;28;20057;-30
2022/01/13 04:24:52;;;;;;;22.80;17.03;;;10.20;92.00;;;;;;5171390;28;20053;-28
2022/01/13 04:27:26;;;;;;;20.23;15.37;;;9.60;93.20;;;;;;5188300;28;20048;-30
2022/01/13 04:32:51;;;;;;;19.98;13.30;;;9.30;94.00;;;;;;5166554;28;20102;-30
2022/01/13 04:35:22;;;;;;;18.80;13.73;;;9.20;94.30;;;;;;5150270;28;20463;-28
2022/01/13 04:37:53;;;;;;;21.03;14.40;;;9.10;94.50;;;;;;5166856;28;20066;-30
2022/01/13 04:40:25;;;;;;;18.17;13.80;;;9.10;94.60;;;;;;5166103;28;20056;-29
2022/01/13 04:42:56;;;;;;;23.37;17.07;;;9.00;94.80;;;;;;5134547;28;20050;-31
2022/01/13 04:45:28;;;;;;;20.73;14.83;;;9.00;94.90;;;;;;5166203;28;20075;-30
2022/01/13 04:47:59;;;;;;;21.70;15.43;;;8.90;95.00;;;;;;5134037;28;20435;-29
2022/01/13 04:50:30;;;;;;;27.03;18.27;;;8.90;95.10;;;;;;5166348;28;20058;-30
2022/01/13 04:53:01;;;;;;;19.37;15.13;;;8.90;95.20;;;;;;5133943;28;20054;-27
2022/01/13 04:55:34;;;;;;;20.43;15.13;;;8.80;95.20;;;;;;5118332;28;20455;-30
2022/01/13 04:58:06;;;;;;;17.80;14.45;;;8.80;95.40;;;;;;5165852;28;20053;-29
2022/01/13 05:00:37;;;;;;;19.50;15.33;;;8.70;95.30;;;;;;5149779;28;20408;-29
2022/01/13 05:03:08;;;;;;;23.30;17.37;;;8.70;95.50;;;;;;5165732;28;20058;-28
2022/01/13 05:05:39;;;;;;;20.77;16.67;;;8.80;95.60;;;;;;5165706;28;20057;-29
2022/01/13 05:08:10;;;;;;;28.63;22.80;;;8.90;95.50;;;;;;5149799;28;20047;-27
2022/01/13 05:10:41;;;;;;;18.10;13.97;;;9.00;95.30;;;;;;5184896;28;20077;-29
2022/01/13 05:13:12;;;;;;;20.50;15.77;;;9.10;95.10;;;;;;5186720;28;20046;-28
2022/01/13 05:15:44;;;;;;;65.97;47.33;;;9.20;95.10;;;;;;5188313;28;20147;-28
2022/01/13 05:18:26;;;;;;;26.17;19.87;;;9.20;95.30;;;;;;5187767;28;20046;-30
2022/01/13 05:21:04;;;;;;;21.93;16.90;;;9.20;95.10;;;;;;5188272;28;20494;-30
2022/01/13 05:23:34;;;;;;;23.53;17.40;;;9.20;95.10;;;;;;5188512;28;20480;-28
2022/01/13 05:26:05;;;;;;;23.27;18.00;;;9.20;95.20;;;;;;5188339;28;20133;-28
2022/01/13 05:28:38;;;;;;;28.07;18.63;;;9.20;95.30;;;;;;5188437;28;20394;-29
2022/01/13 05:31:09;;;;;;;26.80;17.88;;;9.20;95.20;;;;;;5187799;28;20057;-30
2022/01/13 05:33:40;;;;;;;23.93;17.27;;;9.20;95.40;;;;;;5187489;28;20045;-30
2022/01/13 05:36:13;;;;;;;29.27;19.17;;;9.10;95.40;;;;;;5187415;28;20069;-28
2022/01/13 05:38:43;;;;;;;26.77;18.87;;;9.10;95.60;;;;;;5170629;28;20045;-30
2022/01/13 05:41:14;;;;;;;25.20;18.23;;;9.10;95.70;;;;;;5186545;28;20042;-30
2022/01/13 05:43:45;;;;;;;28.10;19.00;;;9.10;95.60;;;;;;5186781;28;20053;-30
2022/01/13 05:46:16;;;;;;;28.40;18.73;;;9.20;95.60;;;;;;5187530;28;20069;-30
2022/01/13 05:48:47;;;;;;;26.70;18.53;;;9.20;95.50;;;;;;5186233;28;20076;-32
2022/01/13 05:51:19;;;;;;;28.40;18.30;;;9.30;95.50;;;;;;5186717;28;20470;-27
2022/01/13 05:53:50;;;;;;;38.47;22.83;;;9.30;95.40;;;;;;5185696;28;20153;-29
2022/01/13 05:56:21;;;;;;;40.53;24.10;;;9.40;95.40;;;;;;5178495;28;20046;-30
2022/01/13 05:58:53;;;;;;;38.23;26.60;;;9.40;95.50;;;;;;5185158;28;20057;-29
2022/01/13 06:01:24;;;;;;;43.23;26.83;;;9.40;95.30;;;;;;5168782;28;20046;-28
2022/01/13 06:03:55;;;;;;;75.97;48.07;;;9.40;95.40;;;;;;5187201;28;20038;-28
2022/01/13 06:06:26;;;;;;;103.67;59.40;;;9.40;95.60;;;;;;5186823;28;20061;-29
2022/01/13 06:08:57;;;;;;;50.73;29.90;;;9.30;95.60;;;;;;5186042;28;20042;-30
2022/01/13 06:11:37;;;;;;;40.20;26.07;;;9.30;95.60;;;;;;5187665;28;20068;-29
2022/01/13 06:14:08;;;;;;;33.10;19.67;;;9.30;95.80;;;;;;5187042;28;20046;-29
2022/01/13 06:16:39;;;;;;;30.93;19.30;;;9.30;96.00;;;;;;5186990;28;20044;-29
2022/01/13 06:19:10;;;;;;;34.80;20.57;;;9.70;95.40;;;;;;5168858;28;20058;-28
2022/01/13 06:21:41;;;;;;;31.53;18.97;;;10.20;94.70;;;;;;5186952;28;20137;-30
2022/01/13 06:24:12;;;;;;;38.80;21.80;;;10.60;94.00;;;;;;5186089;28;20133;-28
2022/01/13 06:26:43;;;;;;;50.53;31.70;;;11.00;93.50;;;;;;5185081;28;20050;-29
2022/01/13 06:29:14;;;;;;;46.67;28.17;;;11.30;92.90;;;;;;5186925;28;20045;-28
2022/01/13 06:31:45;;;;;;;49.23;28.63;;;11.50;92.60;;;;;;5186832;28;20058;-31
2022/01/13 06:34:16;;;;;;;45.17;27.20;;;11.70;92.30;;;;;;5186674;28;20100;-31
2022/01/13 06:36:48;;;;;;;45.57;33.23;;;11.80;92.10;;;;;;5185537;28;20050;-28
2022/01/13 06:39:19;;;;;;;42.17;28.27;;;12.00;91.90;;;;;;5186038;28;20108;-28
2022/01/13 06:41:50;;;;;;;35.43;27.93;;;12.00;91.60;;;;;;5186010;28;20042;-28
2022/01/13 06:44:20;;;;;;;42.20;30.33;;;12.10;91.60;;;;;;5185644;28;20107;-30
2022/01/13 06:46:51;;;;;;;47.47;30.97;;;12.20;91.40;;;;;;5186711;28;20052;-28
2022/01/13 06:49:22;;;;;;;49.53;31.47;;;12.30;91.30;;;;;;5169077;28;20046;-30
2022/01/13 06:51:54;;;;;;;57.37;36.67;;;12.30;91.30;;;;;;5185225;28;20068;-29
2022/01/13 06:54:25;;;;;;;41.23;27.53;;;12.40;91.20;;;;;;5186813;28;20038;-30
2022/01/13 06:56:56;;;;;;;34.73;22.80;;;12.40;91.20;;;;;;5179813;28;20085;-29
2022/01/13 06:59:26;;;;;;;34.80;23.63;;;12.40;91.10;;;;;;5188597;28;20056;-29
2022/01/13 07:02:00;;;;;;;33.93;23.37;;;12.40;91.10;;;;;;5188249;28;20100;-29
2022/01/13 07:04:31;;;;;;;26.27;18.27;;;12.40;91.00;;;;;;5188272;28;20046;-29
2022/01/13 07:07:02;;;;;;;30.43;21.53;;;12.50;91.00;;;;;;5188393;28;20120;-31
2022/01/13 07:09:33;;;;;;;27.97;19.77;;;12.50;90.90;;;;;;5187169;28;20056;-30
2022/01/13 07:12:04;;;;;;;30.77;20.97;;;12.60;91.00;;;;;;5187996;28;20487;-29
2022/01/13 07:14:35;;;;;;;34.67;27.13;;;12.60;90.90;;;;;;5188577;28;20046;-29
2022/01/13 07:17:06;;;;;;;27.03;20.27;;;12.70;90.80;;;;;;5190164;28;20133;-29
2022/01/13 07:19:38;;;;;;;22.63;15.63;;;12.70;90.80;;;;;;5189304;28;20137;-28
2022/01/13 07:22:09;;;;;;;26.33;18.87;;;12.70;90.90;;;;;;5190374;28;20484;-29
2022/01/13 07:24:40;;;;;;;21.80;17.17;;;12.70;90.90;;;;;;5189935;28;20081;-29
2022/01/13 07:27:11;;;;;;;22.23;16.03;;;12.60;91.00;;;;;;5190828;28;20045;-29
2022/01/13 07:29:42;;;;;;;22.90;17.63;;;12.60;90.90;;;;;;5189542;28;20042;-28
2022/01/13 07:32:15;;;;;;;22.50;17.30;;;12.70;91.00;;;;;;5190046;28;20061;-29
2022/01/13 07:34:47;;;;;;;21.80;15.38;;;12.70;90.90;;;;;;5172698;28;20076;-30
2022/01/13 07:37:18;;;;;;;23.27;16.80;;;12.70;90.90;;;;;;5188993;28;20172;-29
2022/01/13 07:39:49;;;;;;;25.73;18.80;;;12.80;91.00;;;;;;5189109;28;20117;-28
2022/01/13 07:42:22;;;;;;;21.43;16.50;;;12.70;91.00;;;;;;5189992;28;20072;-29
2022/01/13 07:44:53;;;;;;;22.23;17.37;;;12.70;91.00;;;;;;5189842;28;20050;-29
2022/01/13 07:47:26;;;;;;;21.13;15.50;;;12.70;91.10;;;;;;5189733;28;20053;-29
2022/01/13 07:49:57;;;;;;;19.13;15.50;;;12.70;91.20;;;;;;5189708;28;20049;-28
2022/01/13 07:52:28;;;;;;;20.37;14.90;;;12.70;91.20;;;;;;5188376;28;20045;-29
2022/01/13 07:54:59;;;;;;;18.53;14.10;;;12.70;91.30;;;;;;5189645;28;20480;-29
2022/01/13 07:57:30;;;;;;;21.33;16.20;;;12.70;91.40;;;;;;5172296;28;20042;-29
2022/01/13 08:00:00;;;;;;;22.40;15.60;;;12.70;91.40;;;;;;5189601;28;20050;-30
2022/01/13 08:02:32;;;;;;;21.73;16.10;;;12.70;91.40;;;;;;5188587;28;20132;-29
2022/01/13 08:05:03;;;;;;;22.73;17.07;;;12.70;91.50;;;;;;5189236;28;20128;-29
2022/01/13 08:07:34;;;;;;;24.43;15.77;;;12.70;91.50;;;;;;5188478;28;20093;-29
2022/01/13 08:10:05;;;;;;;22.10;15.03;;;12.70;91.60;;;;;;5189404;28;20069;-29
2022/01/13 08:12:37;;;;;;;20.63;15.20;;;12.70;91.60;;;;;;5188836;28;20050;-29
2022/01/13 08:15:12;;;;;;;22.37;16.93;;;12.70;91.70;;;;;;5187937;28;20119;-29
2022/01/13 08:20:36;;;;;;;25.13;17.40;;;12.70;91.80;;;;;;5188219;28;20046;-29
2022/01/13 08:23:08;;;;;;;19.93;15.57;;;12.70;91.90;;;;;;5188988;28;20054;-29
2022/01/13 08:25:39;;;;;;;20.05;14.77;;;12.60;91.90;;;;;;5187649;28;20129;-28
2022/01/13 08:28:11;;;;;;;20.00;16.00;;;12.60;92.10;;;;;;5187966;28;20125;-29
2022/01/13 08:30:42;;;;;;;17.83;13.83;;;12.50;92.20;;;;;;5188777;28;20556;-30
2022/01/13 08:33:13;;;;;;;18.47;14.27;;;12.50;92.20;;;;;;5188606;28;20116;-28
2022/01/13 08:35:44;;;;;;;21.73;15.77;;;12.60;92.20;;;;;;5187613;28;20050;-29
2022/01/13 08:38:16;;;;;;;14.97;11.53;;;12.70;92.10;;;;;;5188963;28;20042;-29
2022/01/13 08:40:47;;;;;;;21.83;17.40;;;12.80;92.00;;;;;;5171085;28;20050;-29
2022/01/13 08:43:19;;;;;;;19.30;14.23;;;12.80;92.00;;;;;;5188240;28;20112;-28
2022/01/13 08:45:51;;;;;;;29.43;21.57;;;12.80;91.90;;;;;;5188546;28;20046;-29
2022/01/13 08:48:24;;;;;;;16.83;12.23;;;12.80;91.90;;;;;;5188229;28;20511;-30
2022/01/13 08:50:55;;;;;;;20.20;13.93;;;12.80;91.90;;;;;;5188484;28;20120;-28
2022/01/13 08:53:28;;;;;;;27.20;16.87;;;12.80;92.00;;;;;;5188616;28;20042;-29
2022/01/13 08:56:00;;;;;;;15.30;10.70;;;12.80;92.00;;;;;;5187818;28;20050;-31
2022/01/13 08:58:31;;;;;;;19.57;14.43;;;12.80;92.00;;;;;;5149809;28;20054;-30
2022/01/13 09:01:02;;;;;;;18.90;12.97;;;12.80;92.10;;;;;;5165973;28;20050;-30
2022/01/13 09:03:34;;;;;;;17.87;14.70;;;12.80;92.10;;;;;;5133757;28;20050;-30
2022/01/13 09:13:37;;;;;;;45.42;25.50;;;12.80;92.10;;;;;;5165096;28;20065;-28
2022/01/13 09:16:16;;;;;;;40.35;30.88;;;12.80;92.10;;;;;;5165484;28;20150;-28
2022/01/13 09:21:28;;;;;;;21.20;15.37;;;12.80;92.00;;;;;;5165754;28;20046;-30
2022/01/13 09:23:59;;;;;;;15.73;12.13;;;12.80;92.00;;;;;;5148716;28;20050;-29
2022/01/13 09:26:30;;;;;;;14.97;11.53;;;12.80;92.10;;;;;;5165746;28;20047;-29
2022/01/13 09:29:02;;;;;;;21.17;14.07;;;12.80;92.30;;;;;;5172305;28;20042;-29
2022/01/13 09:31:35;;;;;;;17.73;13.03;;;12.90;92.10;;;;;;5187461;28;20522;-29
2022/01/13 09:34:06;;;;;;;19.88;14.38;;;12.90;92.10;;;;;;5188332;28;20450;-29
2022/01/13 09:36:37;;;;;;;20.67;15.23;;;12.90;92.10;;;;;;5186626;28;20117;-30
2022/01/13 09:39:09;;;;;;;19.13;14.83;;;12.90;92.10;;;;;;5186713;28;20396;-29
2022/01/13 09:41:42;;;;;;;19.60;14.33;;;12.90;92.10;;;;;;5186406;28;20093;-29
2022/01/13 09:44:13;;;;;;;18.38;14.73;;;12.90;92.20;;;;;;5169317;28;20058;-30
2022/01/13 09:46:45;;;;;;;21.50;14.37;;;12.80;92.20;;;;;;5187562;28;20053;-30
2022/01/13 09:49:16;;;;;;;21.63;16.37;;;12.80;92.20;;;;;;5187480;28;20092;-30
2022/01/13 09:51:47;;;;;;;23.37;16.23;;;12.90;92.30;;;;;;5187688;28;20038;-31
2022/01/13 09:54:20;;;;;;;25.63;18.23;;;12.90;92.30;;;;;;5187615;28;20128;-28
2022/01/13 09:56:51;;;;;;;;;;;12.90;92.30;;;;;;5186820;28;20046;-28
2022/01/13 09:59:22;;;;;;;23.37;17.60;;;12.90;92.30;;;;;;5169929;28;19921;-30
2022/01/13 10:01:53;;;;;;;20.27;14.57;;;12.90;92.50;;;;;;5187609;28;20064;-28
2022/01/13 10:04:24;;;;;;;17.57;15.73;;;12.90;92.40;;;;;;5187332;28;20046;-28
2022/01/13 10:06:56;;;;;;;22.50;20.03;;;12.90;92.50;;;;;;5186008;28;20045;-28
2022/01/13 10:09:51;;;;;;;19.57;15.03;;;12.80;92.60;;;;;;5186826;28;20042;-28
2022/01/13 10:12:26;;;;;;;21.93;15.97;;;12.80;92.60;;;;;;5186375;28;20476;-30
2022/01/13 10:17:44;;;;;;;27.77;19.77;;;12.80;92.70;;;;;;5170249;28;20053;-29
2022/01/13 10:20:16;;;;;;;31.97;21.83;;;12.80;92.70;;;;;;5170460;28;20173;-30
2022/01/13 10:22:48;;;;;;;21.50;16.42;;;12.80;92.80;;;;;;5185878;28;20038;-30
2022/01/13 10:25:32;;;;;;;25.23;18.73;;;12.70;92.80;;;;;;5186726;28;20082;-29
2022/01/13 10:28:22;;;;;;;21.40;18.20;;;12.80;92.80;;;;;;5185915;28;20050;-28
2022/01/13 10:30:54;;;;;;;19.17;16.30;;;12.70;92.80;;;;;;5186854;28;20518;-29
2022/01/13 10:33:26;;;;;;;20.90;16.63;;;12.70;92.90;;;;;;5186901;28;20372;-29
2022/01/13 10:36:11;;;;;;;20.43;16.47;;;12.80;92.80;;;;;;5187214;28;20503;-30
2022/01/13 10:38:56;;;;;;;21.43;14.53;;;12.80;92.80;;;;;;5169771;28;20053;-30
2022/01/13 10:41:50;;;;;;;20.67;15.90;;;12.80;92.80;;;;;;5164151;28;20112;-28
2022/01/13 10:44:21;;;;;;;20.50;16.37;;;12.80;92.80;;;;;;5164320;28;20180;-28
2022/01/13 10:47:03;;;;;;;19.73;15.07;;;12.80;92.80;;;;;;5164629;28;20129;-30
2022/01/13 10:49:38;;;;;;;18.47;15.60;;;12.80;92.90;;;;;;5159412;28;20046;-28
2022/01/13 10:52:26;;;;;;;19.80;16.40;;;12.70;92.90;;;;;;5156455;28;20174;-31
2022/01/13 10:55:14;;;;;;;17.07;14.10;;;12.70;92.90;;;;;;5134470;28;20485;-30
2022/01/13 10:57:45;;;;;;;16.37;13.63;;;12.80;93.00;;;;;;5161742;28;20049;-29
2022/01/13 11:00:16;;;;;;;16.03;12.73;;;12.80;93.10;;;;;;5161838;28;20042;-29
2022/01/13 11:03:05;;;;;;;16.17;12.37;;;12.80;92.90;;;;;;5161581;28;20058;-30
2022/01/13 11:05:56;;;;;;;19.47;15.70;;;12.90;92.80;;;;;;5161696;28;20050;-28
2022/01/13 11:08:31;;;;;;;21.80;17.37;;;13.00;92.70;;;;;;5145492;28;20059;-28
2022/01/13 11:11:03;;;;;;;19.13;14.63;;;13.00;92.70;;;;;;5132292;28;20583;-28
2022/01/13 11:13:38;;;;;;;19.17;14.10;;;13.00;92.70;;;;;;5180306;28;20153;-30
2022/01/13 11:16:11;;;;;;;18.10;15.07;;;13.10;92.60;;;;;;5184614;28;20046;-30
2022/01/13 11:18:42;;;;;;;24.20;20.30;;;13.10;92.60;;;;;;5183132;28;20038;-29
2022/01/13 11:21:13;;;;;;;18.53;16.00;;;13.10;92.60;;;;;;5183079;28;20042;-29
2022/01/13 11:23:48;;;;;;;16.13;14.43;;;13.10;92.70;;;;;;5183823;28;20060;-31
2022/01/13 11:26:26;;;;;;;17.17;12.83;;;13.10;92.60;;;;;;5182703;28;20054;-30
2022/01/13 11:29:04;;;;;;;16.03;14.00;;;13.10;92.60;;;;;;5184058;28;20055;-30
2022/01/13 11:31:35;;;;;;;16.60;12.57;;;13.10;92.70;;;;;;5184257;28;20046;-29
2022/01/13 11:34:06;;;;;;;12.20;10.77;;;13.10;92.70;;;;;;5182647;28;20046;-30
2022/01/13 11:36:37;;;;;;;16.13;13.87;;;13.00;92.80;;;;;;5166491;28;20066;-29
2022/01/13 11:39:08;;;;;;;16.83;13.70;;;13.00;92.80;;;;;;5182758;28;20038;-29
2022/01/13 11:42:04;;;;;;;24.57;17.13;;;13.10;92.80;;;;;;5185779;28;20050;-30
2022/01/13 11:44:36;;;;;;;42.97;28.20;;;13.10;92.80;;;;;;5173291;28;20060;-30
2022/01/13 11:47:24;;;;;;;35.13;24.37;;;13.00;92.80;;;;;;5186225;28;20057;-29
2022/01/13 11:50:19;;;;;;;24.40;18.23;;;13.00;92.80;;;;;;5176709;28;20052;-28
2022/01/13 11:52:52;;;;;;;24.60;18.80;;;13.00;92.90;;;;;;5186200;28;20451;-30
2022/01/13 11:55:41;;;;;;;27.65;19.70;;;13.00;92.90;;;;;;5186138;28;20049;-30
2022/01/13 11:58:16;;;;;;;22.83;18.07;;;13.00;93.00;;;;;;5174512;28;20070;-30
2022/01/13 12:00:50;;;;;;;29.10;19.90;;;13.00;93.00;;;;;;5186216;28;20042;-30
2022/01/13 12:03:22;;;;;;;23.10;18.97;;;13.00;93.00;;;;;;5187418;28;20111;-31
2022/01/13 12:05:53;;;;;;;19.73;16.13;;;13.00;92.90;;;;;;5187011;28;20073;-30
2022/01/13 12:08:34;;;;;;;20.03;16.63;;;13.00;92.90;;;;;;5184106;28;20038;-29
2022/01/13 12:11:06;;;;;;;25.17;21.40;;;13.00;92.80;;;;;;5178074;28;20048;-29
2022/01/13 12:13:43;;;;;;;25.10;20.63;;;13.00;92.80;;;;;;5186991;28;20038;-28
2022/01/13 12:16:14;;;;;;;35.67;27.00;;;13.00;92.70;;;;;;5186846;28;20046;-29
2022/01/13 12:18:58;;;;;;;33.03;24.90;;;13.00;92.70;;;;;;5189119;28;20046;-29
2022/01/13 12:21:36;;;;;;;38.67;29.20;;;13.00;92.80;;;;;;5189315;28;20073;-30
2022/01/13 12:24:08;;;;;;;35.93;26.33;;;13.00;92.80;;;;;;5187822;28;20081;-30
2022/01/13 12:26:47;;;;;;;33.43;26.10;;;13.00;92.90;;;;;;5187738;28;20046;-29
2022/01/13 12:29:27;;;;;;;35.97;27.73;;;12.90;92.90;;;;;;5188629;28;20042;-30
2022/01/13 12:32:01;;;;;;;35.30;27.07;;;13.00;92.90;;;;;;5189163;28;20071;-28
2022/01/13 12:34:35;;;;;;;31.03;25.00;;;13.00;92.80;;;;;;5187813;28;20042;-30
2022/01/13 12:37:12;;;;;;;26.77;22.50;;;13.00;93.00;;;;;;5189085;28;20488;-28
2022/01/13 12:39:58;;;;;;;37.03;26.97;;;13.10;92.80;;;;;;5188699;28;20419;-30
2022/01/13 12:42:49;;;;;;;37.70;26.90;;;13.00;92.80;;;;;;5188837;28;20403;-30
2022/01/13 12:45:28;;;;;;;32.33;25.60;;;13.00;92.70;;;;;;5187641;28;20053;-31
2022/01/13 12:48:03;;;;;;;31.33;24.77;;;13.00;92.70;;;;;;5187015;28;20045;-29
2022/01/13 12:50:42;;;;;;;29.87;22.97;;;13.00;92.70;;;;;;5188406;28;20049;-29
2022/01/13 12:53:16;;;;;;;30.37;22.33;;;13.00;92.80;;;;;;5187095;28;20050;-31
2022/01/13 12:56:02;;;;;;;36.23;27.67;;;13.00;92.80;;;;;;5188064;28;20104;-28
2022/01/13 12:58:36;;;;;;;48.70;32.10;;;13.00;92.80;;;;;;5188239;28;20042;-28
2022/01/13 13:01:09;;;;;;;51.67;37.60;;;13.00;92.90;;;;;;5188393;28;20395;-31
2022/01/13 13:03:40;;;;;;;51.60;37.92;;;13.00;92.90;;;;;;5188699;28;20053;-30
2022/01/13 13:06:13;;;;;;;55.77;39.80;;;13.00;92.80;;;;;;5187130;28;20046;-30
2022/01/13 13:08:46;;;;;;;46.40;32.60;;;13.00;92.80;;;;;;5170721;28;20196;-30
2022/01/13 13:11:18;;;;;;;41.73;29.03;;;13.00;92.90;;;;;;5187131;28;20436;-31
2022/01/13 13:13:51;;;;;;;33.20;26.53;;;13.00;92.90;;;;;;5186477;28;20060;-30
2022/01/13 13:16:22;;;;;;;38.17;29.30;;;13.00;92.90;;;;;;5188173;28;20069;-31
2022/01/13 13:18:53;;;;;;;34.77;28.00;;;13.00;92.90;;;;;;5186780;28;20073;-28
2022/01/13 13:21:26;;;;;;;32.13;25.43;;;13.00;92.90;;;;;;5188065;28;20049;-28
2022/01/13 13:23:57;;;;;;;29.38;23.52;;;13.00;93.00;;;;;;5187765;28;20045;-29
2022/01/13 13:26:30;;;;;;;34.70;25.97;;;13.10;93.00;;;;;;5187834;28;20053;-30
2022/01/13 13:29:01;;;;;;;35.07;29.13;;;13.10;93.00;;;;;;5187811;28;20045;-29
2022/01/13 13:42:43;;;;;;;33.20;28.13;;;13.30;92.80;;;;;;5292145;23;20055;-30
2022/01/13 13:45:15;;;;;;;31.07;23.77;;;13.30;92.90;;;;;;5107212;29;20043;-30
2022/01/13 13:47:56;;;;;;;56.27;33.00;;;13.30;93.00;;;;;;5106206;29;20406;-30
2022/01/13 13:50:29;;;;;;;49.73;30.80;;;13.20;93.10;;;;;;5090518;29;20405;-28
2022/01/13 13:53:18;;;;;;;64.65;39.58;;;13.20;93.10;;;;;;5106041;29;20035;-28
2022/01/13 13:56:00;;;;;;;79.87;51.30;;;13.20;93.20;;;;;;5107543;29;20079;-30